Time;durP1;ratioP1;P1;durP2;ratioP2;P2;SDS_P1;SDS_P2;PMS_P1;PMS_P2;Temp;Humidity;BMP_temperature;BMP_pressure;BME280_temperature;BME280_humidity;BME280_pressure;Samples;Min_cycle;Max_cycle;Signal;HPM_P1;HPM_P2
2023/02/21 02:28:47;;;;;;;60.60;31.60;;;8.10;99.90;;;;;;2614217;54;20503;-73
2023/02/21 02:34:36;;;;;;;68.07;37.47;;;8.10;99.90;;;;;;2614109;54;20442;-74
2023/02/21 02:47:03;;;;;;;71.00;37.90;;;8.20;99.90;;;;;;2614792;54;20415;-73
2023/02/21 02:52:54;;;;;;;66.30;35.20;;;8.20;99.90;;;;;;2614679;39;20799;-75
2023/02/21 03:24:21;;;;;;;56.67;34.20;;;8.00;99.90;;;;;;2615371;54;20999;-73
2023/02/21 03:27:09;;;;;;;60.90;33.00;;;8.00;99.90;;;;;;2615499;39;20929;-71
2023/02/21 03:32:57;;;;;;;59.83;33.20;;;8.00;99.90;;;;;;2615681;39;20765;-73
2023/02/21 03:38:45;;;;;;;67.03;34.40;;;8.00;99.90;;;;;;2615357;46;20150;-74
2023/02/21 03:44:32;;;;;;;64.87;32.50;;;8.00;99.90;;;;;;2615087;54;20126;-73
2023/02/21 03:50:20;;;;;;;64.03;34.97;;;8.00;99.90;;;;;;2615550;54;20122;-73
2023/02/21 03:56:08;;;;;;;58.00;30.97;;;8.00;99.90;;;;;;2615237;54;20134;-72
2023/02/21 04:01:56;;;;;;;57.43;32.23;;;7.90;99.90;;;;;;2615226;54;20161;-73
2023/02/21 04:07:45;;;;;;;60.03;34.20;;;8.00;99.90;;;;;;2615263;54;20460;-73
2023/02/21 04:13:33;;;;;;;58.90;33.20;;;7.90;99.90;;;;;;2615101;54;20378;-73
2023/02/21 04:19:20;;;;;;;59.53;32.60;;;7.90;99.90;;;;;;2614964;54;20145;-72
2023/02/21 04:22:37;;;;;;;66.63;31.67;;;7.90;99.90;;;;;;2615071;46;20439;-73
2023/02/21 04:25:02;;;;;;;60.67;33.20;;;7.90;99.90;;;;;;2615113;54;20698;-74
2023/02/21 04:30:50;;;;;;;60.73;34.93;;;7.90;99.90;;;;;;2615043;54;20130;-73
2023/02/21 04:36:38;;;;;;;75.37;35.63;;;7.90;99.90;;;;;;2614855;54;20166;-73
2023/02/21 04:42:26;;;;;;;66.90;30.73;;;7.90;99.90;;;;;;2615035;46;20518;-73
2023/02/21 04:48:14;;;;;;;68.63;36.63;;;7.90;99.90;;;;;;2615185;54;20792;-74
2023/02/21 04:54:02;;;;;;;60.87;27.40;;;7.80;99.90;;;;;;2614969;54;20127;-73
2023/02/21 04:59:56;;;;;;;61.97;31.37;;;7.80;99.90;;;;;;2615087;54;20391;-73
2023/02/21 05:05:44;;;;;;;81.80;37.40;;;7.80;99.90;;;;;;2615606;54;20956;-73
2023/02/21 05:11:36;;;;;;;70.40;34.63;;;7.80;99.90;;;;;;2616108;54;20126;-73
2023/02/21 05:17:24;;;;;;;75.17;37.40;;;7.80;99.90;;;;;;2616017;54;20359;-73
2023/02/21 05:27:14;;;;;;;75.07;38.93;;;7.80;99.90;;;;;;2615752;46;20411;-72
2023/02/21 05:33:02;;;;;;;65.43;34.13;;;7.90;99.90;;;;;;2615922;54;20339;-72
2023/02/21 05:38:53;;;;;;;82.10;36.30;;;7.90;99.90;;;;;;2615717;54;20189;-73
2023/02/21 05:44:44;;;;;;;66.97;32.13;;;7.80;99.90;;;;;;2615698;54;20963;-72
2023/02/21 05:50:32;;;;;;;78.40;39.83;;;7.80;99.90;;;;;;2615962;54;20395;-73
2023/02/21 05:56:20;;;;;;;53.10;29.30;;;7.90;99.90;;;;;;2615912;54;20198;-72
2023/02/21 06:02:07;;;;;;;87.60;39.40;;;7.80;99.90;;;;;;2615929;54;20390;-73
2023/02/21 06:07:55;;;;;;;93.53;38.40;;;7.80;99.90;;;;;;2615926;54;20247;-73
2023/02/21 06:13:42;;;;;;;86.47;38.30;;;7.90;99.90;;;;;;2615856;54;20271;-74
2023/02/21 06:19:30;;;;;;;77.60;39.00;;;7.90;99.90;;;;;;2615647;54;20713;-73
2023/02/21 06:22:34;;;;;;;89.60;39.97;;;7.80;99.90;;;;;;2615733;54;20387;-73
2023/02/21 06:25:00;;;;;;;70.53;31.17;;;7.80;99.90;;;;;;2615639;54;20146;-73
2023/02/21 06:30:47;;;;;;;78.77;38.33;;;7.80;99.90;;;;;;2615866;54;20142;-72
2023/02/21 06:36:35;;;;;;;87.60;37.03;;;7.80;99.90;;;;;;2615681;54;20151;-72
2023/02/21 06:42:24;;;;;;;89.40;41.10;;;7.70;99.90;;;;;;2615910;54;20158;-73
2023/02/21 06:48:15;;;;;;;82.33;33.83;;;7.70;99.90;;;;;;2616143;54;20411;-73
2023/02/21 06:54:03;;;;;;;75.20;35.40;;;7.70;99.90;;;;;;2615827;39;20770;-72
2023/02/21 06:59:51;;;;;;;95.33;37.70;;;7.70;99.90;;;;;;2615597;54;20403;-73
2023/02/21 07:05:39;;;;;;;75.23;37.03;;;7.70;99.90;;;;;;2615116;54;20122;-72
2023/02/21 07:11:27;;;;;;;77.60;36.40;;;7.70;99.90;;;;;;2615465;54;20669;-73
2023/02/21 07:17:16;;;;;;;80.03;36.20;;;7.70;99.90;;;;;;2615283;54;20509;-72
2023/02/21 07:27:09;;;;;;;69.90;30.77;;;7.80;99.90;;;;;;2615738;39;21007;-73
2023/02/21 07:32:57;;;;;;;87.13;38.13;;;7.80;99.90;;;;;;2615502;54;20438;-72
2023/02/21 07:38:45;;;;;;;75.13;34.00;;;7.80;99.90;;;;;;2615328;54;20430;-73
2023/02/21 07:44:33;;;;;;;75.07;36.10;;;7.80;99.90;;;;;;2615229;54;20203;-72
2023/02/21 07:50:22;;;;;;;64.80;29.70;;;7.90;99.90;;;;;;2616053;31;20844;-73
2023/02/21 07:56:10;;;;;;;79.10;36.60;;;7.80;99.90;;;;;;2614959;54;20479;-72
2023/02/21 08:01:58;;;;;;;83.17;37.07;;;7.80;99.90;;;;;;2615418;54;20395;-73
2023/02/21 08:07:47;;;;;;;69.60;33.57;;;7.60;99.90;;;;;;2614852;54;20366;-71
2023/02/21 08:13:34;;;;;;;81.73;30.07;;;7.60;99.90;;;;;;2615396;39;20752;-73
2023/02/21 08:19:22;;;;;;;74.03;32.83;;;7.60;99.90;;;;;;2614894;54;20642;-73
2023/02/21 08:25:21;;;;;;;84.40;33.70;;;7.70;99.90;;;;;;2613498;47;20139;-72
2023/02/21 08:31:08;;;;;;;74.53;31.00;;;7.70;99.90;;;;;;2613501;54;20163;-73
2023/02/21 08:36:55;;;;;;;72.53;35.80;;;7.70;99.90;;;;;;2614606;54;20130;-73
2023/02/21 08:42:42;;;;;;;65.67;33.13;;;7.60;99.90;;;;;;2614360;54;20387;-73
2023/02/21 08:48:28;;;;;;;64.53;24.20;;;7.70;99.90;;;;;;2614379;54;20718;-73
2023/02/21 08:54:15;;;;;;;62.57;29.47;;;7.60;99.90;;;;;;2614409;54;20129;-73
2023/02/21 09:00:10;;;;;;;70.80;31.40;;;7.60;99.90;;;;;;2614466;54;20766;-72
2023/02/21 09:05:58;;;;;;;68.57;28.47;;;7.60;99.90;;;;;;2615648;54;20402;-72
2023/02/21 09:11:48;;;;;;;45.33;20.50;;;7.50;99.90;;;;;;2615519;54;20346;-74
2023/02/21 09:17:35;;;;;;;45.33;22.90;;;7.50;99.90;;;;;;2615587;54;20411;-73
2023/02/21 09:27:11;;;;;;;45.17;21.77;;;7.50;99.90;;;;;;2615621;54;20772;-73
2023/02/21 09:32:58;;;;;;;42.93;22.10;;;7.60;99.90;;;;;;2615745;46;20412;-72
2023/02/21 09:38:46;;;;;;;51.07;24.60;;;7.60;99.90;;;;;;2615591;54;20134;-73
2023/02/21 09:44:34;;;;;;;55.43;26.97;;;7.80;99.90;;;;;;2615588;54;20138;-73
2023/02/21 09:50:29;;;;;;;54.07;25.03;;;7.80;99.90;;;;;;2616356;39;20622;-73
2023/02/21 10:09:35;;;;;;;58.53;27.77;;;8.10;99.90;;;;;;2615708;54;20423;-73
2023/02/21 10:28:21;;;;;;;46.57;24.23;;;8.30;99.90;;;;;;2615123;54;20386;-72
2023/02/21 10:53:44;;;;;;;30.50;16.20;;;8.20;99.90;;;;;;2615383;54;20338;-72
2023/02/21 10:59:35;;;;;;;41.53;20.93;;;8.30;99.90;;;;;;2615561;54;20920;-73
2023/02/21 11:05:23;;;;;;;33.77;17.10;;;8.40;99.90;;;;;;2615111;54;20405;-73
2023/02/21 11:11:11;;;;;;;33.83;18.20;;;8.30;99.90;;;;;;2615180;54;20507;-73
2023/02/21 11:17:13;;;;;;;33.30;17.97;;;8.40;99.90;;;;;;2615434;54;20174;-72
2023/02/21 11:27:13;;;;;;;34.60;17.83;;;8.70;99.90;;;;;;2615168;54;20442;-72
2023/02/21 11:33:01;;;;;;;27.67;14.30;;;8.60;99.90;;;;;;2615086;54;20992;-73
2023/02/21 11:39:06;;;;;;;49.80;17.70;;;8.60;99.90;;;;;;2615094;54;20443;-72
2023/02/21 11:42:09;;;;;;;30.00;17.60;;;8.80;99.90;;;;;;2615132;54;20411;-73
2023/02/21 11:44:37;;;;;;;28.23;15.70;;;9.10;99.90;;;;;;2614737;54;20415;-73
2023/02/21 11:50:31;;;;;;;27.30;15.97;;;9.30;99.90;;;;;;2615177;54;20372;-72
2023/02/21 12:02:54;;;;;;;20.03;12.40;;;9.70;99.90;;;;;;2615092;54;20391;-73
2023/02/21 12:08:47;;;;;;;18.50;12.97;;;9.70;99.90;;;;;;2615410;54;20438;-72
2023/02/21 12:38:10;;;;;;;17.00;12.43;;;9.50;99.90;;;;;;2615896;54;20394;-73
2023/02/21 12:50:52;;;;;;;18.03;12.07;;;9.90;99.90;;;;;;2614392;54;20418;-72
2023/02/21 12:56:48;;;;;;;18.20;12.20;;;9.90;99.90;;;;;;2614240;54;20370;-73
2023/02/21 13:09:05;;;;;;;19.80;13.50;;;9.80;99.90;;;;;;2614231;54;20387;-72
2023/02/21 13:14:55;;;;;;;24.23;15.67;;;9.80;99.90;;;;;;2613777;54;20221;-74
2023/02/21 13:30:45;;;;;;;24.60;15.13;;;9.90;99.90;;;;;;2615424;54;20402;-73
2023/02/21 13:36:38;;;;;;;18.13;14.00;;;9.70;99.90;;;;;;2615570;54;20395;-73
2023/02/21 13:42:28;;;;;;;22.77;15.20;;;9.60;99.90;;;;;;2615472;54;20398;-73
2023/02/21 13:48:25;;;;;;;26.73;16.43;;;9.50;99.90;;;;;;2615326;54;20391;-72
2023/02/21 14:00:47;;;;;;;27.10;17.37;;;9.30;99.90;;;;;;2615765;54;20367;-74
2023/02/21 14:06:36;;;;;;;30.63;18.20;;;9.30;99.90;;;;;;2615489;54;20404;-72
2023/02/21 14:12:25;;;;;;;23.80;18.77;;;9.50;99.90;;;;;;2615553;54;20367;-72
2023/02/21 14:24:30;;;;;;;26.80;17.80;;;9.30;99.90;;;;;;2615568;54;20399;-73
2023/02/21 14:30:55;;;;;;;28.07;18.10;;;9.20;99.90;;;;;;2615427;54;20474;-72
2023/02/21 14:33:34;;;;;;;28.43;20.20;;;9.20;99.90;;;;;;2614715;54;20415;-72
2023/02/21 14:39:23;;;;;;;23.17;16.20;;;9.30;99.90;;;;;;2615311;54;20396;-73
2023/02/21 14:45:10;;;;;;;26.30;17.53;;;9.20;99.90;;;;;;2615211;54;20383;-72
2023/02/21 15:04:14;;;;;;;30.70;20.20;;;9.20;99.90;;;;;;2615677;39;20772;-72
2023/02/21 15:16:31;;;;;;;29.50;18.90;;;9.20;99.90;;;;;;2615283;54;20380;-72
2023/02/21 15:22:25;;;;;;;29.77;19.37;;;9.00;99.90;;;;;;2615452;54;20162;-72
2023/02/21 15:29:01;;;;;;;36.70;21.63;;;8.90;99.90;;;;;;2615392;54;20434;-72
2023/02/21 15:34:52;;;;;;;31.40;20.57;;;8.80;99.90;;;;;;2615539;39;20745;-73
2023/02/21 15:40:40;;;;;;;36.43;20.57;;;8.80;99.90;;;;;;2615135;54;20436;-72
2023/02/21 15:53:21;;;;;;;28.93;19.77;;;8.80;99.90;;;;;;2613807;54;20355;-72
2023/02/21 16:05:28;;;;;;;41.90;23.00;;;8.70;99.90;;;;;;2613452;54;20382;-72
2023/02/21 16:11:16;;;;;;;31.53;20.13;;;8.70;99.90;;;;;;2614299;39;20775;-73
2023/02/21 16:17:12;;;;;;;33.63;20.60;;;8.70;99.90;;;;;;2613841;54;20403;-72
2023/02/21 16:33:34;;;;;;;42.67;25.57;;;8.50;99.90;;;;;;2615026;54;20383;-72
2023/02/21 16:39:22;;;;;;;44.10;22.73;;;8.70;99.90;;;;;;2615329;39;20810;-73
2023/02/21 16:45:10;;;;;;;41.20;23.67;;;8.70;99.90;;;;;;2614975;54;20134;-73
2023/02/21 16:57:12;;;;;;;45.90;25.17;;;8.70;99.90;;;;;;2615845;54;20391;-72
2023/02/21 17:03:00;;;;;;;46.07;28.80;;;8.60;99.90;;;;;;2615948;54;20160;-73
2023/02/21 17:08:48;;;;;;;45.93;26.07;;;8.50;99.90;;;;;;2615670;54;20134;-72
2023/02/21 17:14:36;;;;;;;44.43;26.27;;;8.50;99.90;;;;;;2615715;54;20395;-74
2023/02/21 17:20:24;;;;;;;48.83;26.07;;;8.50;99.90;;;;;;2615610;54;20118;-73
2023/02/21 17:26:15;;;;;;;49.50;26.30;;;8.40;99.90;;;;;;2616099;39;20781;-73
2023/02/21 17:29:02;;;;;;;61.53;31.07;;;8.50;99.90;;;;;;2615677;54;20969;-73
2023/02/21 17:31:28;;;;;;;58.87;30.13;;;8.40;99.90;;;;;;2615631;54;20406;-73
2023/02/21 17:34:31;;;;;;;54.07;29.83;;;8.40;99.90;;;;;;2614871;47;20423;-73
2023/02/21 17:36:57;;;;;;;58.10;29.97;;;8.50;99.90;;;;;;2615597;54;20155;-73
2023/02/21 17:42:45;;;;;;;54.23;31.40;;;8.50;99.90;;;;;;2615694;54;20234;-73
2023/02/21 17:48:32;;;;;;;59.43;32.23;;;8.40;99.90;;;;;;2615725;54;20130;-72
2023/02/21 17:54:23;;;;;;;61.47;31.20;;;8.40;99.90;;;;;;2615614;54;20226;-72
2023/02/21 18:06:24;;;;;;;57.00;28.60;;;8.30;99.90;;;;;;2615874;54;20383;-72
2023/02/21 18:12:12;;;;;;;56.73;29.07;;;8.40;99.90;;;;;;2615681;54;20713;-73
2023/02/21 18:18:03;;;;;;;58.27;29.67;;;8.40;99.90;;;;;;2615994;39;20605;-73
2023/02/21 18:23:51;;;;;;;58.47;29.80;;;8.40;99.90;;;;;;2615817;39;20837;-74
2023/02/21 18:33:35;;;;;;;65.03;38.77;;;8.40;99.90;;;;;;2615267;54;21055;-72
2023/02/21 18:39:23;;;;;;;74.97;37.97;;;8.40;99.90;;;;;;2615749;54;20387;-72
2023/02/21 18:45:11;;;;;;;54.10;32.43;;;8.40;99.90;;;;;;2615474;54;21570;-72
2023/02/21 18:50:59;;;;;;;69.53;40.30;;;8.40;99.90;;;;;;2615987;54;20405;-73
2023/02/21 18:56:51;;;;;;;51.43;31.20;;;8.40;99.90;;;;;;2615818;54;20162;-72
2023/02/21 19:02:38;;;;;;;57.70;29.90;;;8.50;99.90;;;;;;2615482;46;20415;-72
2023/02/21 19:08:26;;;;;;;48.70;27.70;;;8.40;99.90;;;;;;2615266;54;20137;-72
2023/02/21 19:14:14;;;;;;;71.53;29.90;;;8.40;99.90;;;;;;2615519;54;20135;-73
2023/02/21 19:20:04;;;;;;;58.60;32.90;;;8.50;99.90;;;;;;2615241;54;20130;-74
2023/02/21 19:25:54;;;;;;;58.60;30.50;;;8.50;99.90;;;;;;2615976;31;20915;-73
2023/02/21 19:29:03;;;;;;;62.07;29.33;;;8.50;99.90;;;;;;2615145;46;20435;-74
2023/02/21 19:31:28;;;;;;;50.60;27.50;;;8.50;99.90;;;;;;2615328;54;20424;-73
2023/02/21 19:37:16;;;;;;;59.03;27.40;;;8.40;99.90;;;;;;2615305;54;20174;-73
2023/02/21 19:43:05;;;;;;;51.90;29.37;;;8.50;99.90;;;;;;2615155;54;20460;-73
2023/02/21 19:48:53;;;;;;;50.03;27.50;;;8.50;99.90;;;;;;2615309;54;20430;-73
2023/02/21 19:54:40;;;;;;;43.30;25.00;;;8.50;99.90;;;;;;2615271;54;20690;-72
2023/02/21 20:00:28;;;;;;;43.77;25.17;;;8.60;99.90;;;;;;2615265;54;20118;-72
2023/02/21 20:06:17;;;;;;;51.30;27.93;;;8.50;99.90;;;;;;2615217;54;20186;-74
2023/02/21 20:12:05;;;;;;;48.67;26.10;;;8.50;99.90;;;;;;2615036;54;20395;-75
2023/02/21 20:17:53;;;;;;;54.90;34.10;;;8.50;99.90;;;;;;2615425;54;20387;-73
2023/02/21 20:23:41;;;;;;;48.03;27.30;;;8.40;99.90;;;;;;2615068;54;20459;-73
2023/02/21 20:33:34;;;;;;;60.80;34.37;;;8.40;99.90;;;;;;2615993;54;20362;-72
2023/02/21 20:39:27;;;;;;;49.60;27.70;;;8.40;99.90;;;;;;2615894;54;20475;-72
2023/02/21 20:45:15;;;;;;;50.07;28.07;;;8.30;99.90;;;;;;2615983;54;21005;-74
2023/02/21 20:51:05;;;;;;;45.23;26.43;;;8.20;99.90;;;;;;2616009;54;20190;-74
2023/02/21 20:56:55;;;;;;;42.73;25.73;;;8.20;99.90;;;;;;2615987;54;20370;-73
2023/02/21 21:02:43;;;;;;;50.87;26.93;;;8.20;99.90;;;;;;2615891;54;20389;-73
2023/02/21 21:08:31;;;;;;;49.57;27.60;;;8.20;99.90;;;;;;2615780;54;20411;-72
2023/02/21 21:14:18;;;;;;;46.40;27.40;;;8.00;99.90;;;;;;2615669;54;20150;-74
2023/02/21 21:20:09;;;;;;;49.03;28.03;;;8.00;99.90;;;;;;2615707;54;20765;-72
2023/02/21 21:26:00;;;;;;;49.17;26.23;;;8.10;99.90;;;;;;2615903;54;20363;-73
2023/02/21 21:29:06;;;;;;;49.93;29.30;;;8.00;99.90;;;;;;2615123;54;21422;-73
2023/02/21 21:35:06;;;;;;;52.80;26.53;;;8.00;99.90;;;;;;2615210;54;20450;-72
2023/02/21 21:40:55;;;;;;;51.07;27.07;;;7.90;99.90;;;;;;2615280;54;20972;-73
2023/02/21 21:46:45;;;;;;;53.67;27.60;;;7.90;99.90;;;;;;2615664;54;20355;-73
2023/02/21 21:52:32;;;;;;;48.70;26.23;;;7.90;99.90;;;;;;2615433;54;20471;-73
2023/02/21 21:58:25;;;;;;;53.00;29.03;;;7.80;99.90;;;;;;2615336;54;20145;-72
2023/02/21 22:04:13;;;;;;;55.03;28.33;;;7.80;99.90;;;;;;2615523;46;20394;-73
2023/02/21 22:10:00;;;;;;;53.87;27.77;;;7.80;99.90;;;;;;2615395;54;20415;-73
2023/02/21 22:15:48;;;;;;;56.23;28.30;;;7.70;99.90;;;;;;2615784;54;20632;-73
2023/02/21 22:21:37;;;;;;;52.27;27.90;;;7.60;99.90;;;;;;2615656;54;20134;-72
2023/02/21 22:27:24;;;;;;;61.33;30.67;;;7.60;99.90;;;;;;2616155;54;20452;-73
2023/02/21 22:30:34;;;;;;;54.37;29.70;;;7.60;99.90;;;;;;2614862;54;20415;-73
2023/02/21 22:33:00;;;;;;;71.43;30.90;;;7.60;99.90;;;;;;2614678;54;20146;-72
2023/02/21 22:38:48;;;;;;;57.43;30.50;;;7.70;99.90;;;;;;2616218;39;20638;-72
2023/02/21 22:44:36;;;;;;;56.23;31.77;;;7.60;99.90;;;;;;2615433;54;20133;-72
2023/02/21 22:50:25;;;;;;;56.50;30.33;;;7.60;99.90;;;;;;2615372;54;20415;-73
2023/02/21 22:56:13;;;;;;;58.60;29.43;;;7.60;99.90;;;;;;2615550;54;20391;-74
2023/02/21 23:02:02;;;;;;;60.67;30.53;;;7.50;99.90;;;;;;2614991;54;20952;-72
2023/02/21 23:07:52;;;;;;;58.53;31.97;;;7.50;99.90;;;;;;2615356;54;20403;-73
2023/02/21 23:13:39;;;;;;;51.17;28.57;;;7.40;99.90;;;;;;2615038;54;20375;-73
2023/02/21 23:19:28;;;;;;;55.03;29.40;;;7.30;99.90;;;;;;2615277;54;20146;-74
2023/02/21 23:25:21;;;;;;;62.90;31.77;;;7.10;99.90;;;;;;2615424;39;20459;-73
2023/02/21 23:35:06;;;;;;;64.93;31.03;;;6.40;99.90;;;;;;2615337;54;20459;-73
2023/02/21 23:40:57;;;;;;;62.33;30.77;;;6.30;99.90;;;;;;2615230;54;20435;-73
2023/02/21 23:46:45;;;;;;;64.63;30.40;;;6.20;99.90;;;;;;2615641;54;20488;-73
2023/02/21 23:52:32;;;;;;;67.30;31.20;;;6.00;99.90;;;;;;2615221;54;20146;-73
2023/02/21 23:58:20;;;;;;;76.70;34.07;;;5.90;99.90;;;;;;2615273;54;20130;-74
